Time;durP1;ratioP1;P1;durP2;ratioP2;P2;SDS_P1;SDS_P2;PMS_P1;PMS_P2;Temp;Humidity;BMP_temperature;BMP_pressure;BME280_temperature;BME280_humidity;BME280_pressure;Samples;Min_cycle;Max_cycle;Signal;HPM_P1;HPM_P2
2023/01/30 00:01:35;;;;;;;14.82;8.18;;;2.10;99.90;;;;;;5102300;28;20097;-62
2023/01/30 00:04:00;;;;;;;13.90;8.50;;;2.10;99.90;;;;;;5085367;28;20454;-62
2023/01/30 00:06:26;;;;;;;17.83;9.55;;;2.10;99.90;;;;;;5102397;28;20142;-62
2023/01/30 00:08:51;;;;;;;14.30;8.55;;;2.10;99.90;;;;;;5068694;28;20051;-62
2023/01/30 00:11:18;;;;;;;15.73;9.38;;;2.10;99.90;;;;;;5106309;28;20122;-62
2023/01/30 00:13:45;;;;;;;14.15;8.85;;;2.10;99.90;;;;;;5068680;28;20574;-62
2023/01/30 00:16:11;;;;;;;16.48;9.52;;;2.10;99.90;;;;;;5106654;28;20446;-62
2023/01/30 00:18:38;;;;;;;17.48;9.15;;;2.10;99.90;;;;;;5085965;28;20032;-62
2023/01/30 00:21:06;;;;;;;13.20;7.60;;;2.10;99.90;;;;;;5106780;28;20028;-62
2023/01/30 00:23:33;;;;;;;16.65;10.00;;;2.10;99.90;;;;;;5090751;28;20032;-62
2023/01/30 00:25:58;;;;;;;18.25;9.38;;;2.10;99.90;;;;;;5096934;28;20115;-62
2023/01/30 00:28:24;;;;;;;18.98;10.35;;;2.10;99.90;;;;;;5091555;28;20106;-62
2023/01/30 00:30:51;;;;;;;18.15;10.15;;;2.10;99.90;;;;;;5103322;28;20063;-62
2023/01/30 00:33:18;;;;;;;14.25;8.65;;;2.10;99.90;;;;;;5092105;28;20024;-62
2023/01/30 00:35:49;;;;;;;18.63;10.50;;;2.10;99.90;;;;;;5104958;28;20123;-62
2023/01/30 00:38:15;;;;;;;17.13;10.18;;;2.10;99.90;;;;;;5076707;28;20039;-62
2023/01/30 00:40:41;;;;;;;16.35;9.15;;;2.10;99.90;;;;;;5106785;28;20038;-62
2023/01/30 00:48:37;;;;;;;17.45;10.45;;;2.10;99.90;;;;;;5069846;28;20092;-63
2023/01/30 00:51:03;;;;;;;17.42;9.65;;;2.10;99.90;;;;;;5087519;28;20032;-60
2023/01/30 00:53:29;;;;;;;17.80;10.05;;;2.10;99.90;;;;;;5080425;28;20074;-62
2023/01/30 00:55:55;;;;;;;19.25;11.10;;;2.10;99.90;;;;;;5108594;28;20030;-62
2023/01/30 00:58:22;;;;;;;18.27;10.52;;;2.10;99.90;;;;;;5087422;28;20051;-61
2023/01/30 01:00:49;;;;;;;17.30;10.60;;;2.10;99.90;;;;;;5107902;28;20426;-61
2023/01/30 01:03:14;;;;;;;19.58;11.07;;;2.00;99.90;;;;;;5087634;28;20035;-62
2023/01/30 01:05:40;;;;;;;19.08;10.40;;;2.10;99.90;;;;;;5089893;28;20545;-61
2023/01/30 01:08:06;;;;;;;22.20;11.50;;;2.00;99.90;;;;;;5105396;28;20126;-61
2023/01/30 01:10:31;;;;;;;19.90;10.38;;;2.10;99.90;;;;;;5088934;28;20035;-62
2023/01/30 01:12:57;;;;;;;19.98;11.82;;;2.10;99.90;;;;;;5106348;28;20507;-62
2023/01/30 01:15:27;;;;;;;18.95;11.43;;;2.00;99.90;;;;;;5089107;28;20464;-61
2023/01/30 01:17:53;;;;;;;21.02;11.35;;;2.00;99.90;;;;;;5106829;28;20042;-62
2023/01/30 01:20:19;;;;;;;17.75;11.70;;;2.00;99.90;;;;;;5089090;28;20024;-61
2023/01/30 01:22:49;;;;;;;18.92;10.68;;;2.00;99.90;;;;;;5106537;28;20035;-62
2023/01/30 01:25:15;;;;;;;20.52;11.10;;;2.00;99.90;;;;;;5088621;28;20028;-61
2023/01/30 01:27:40;;;;;;;19.88;11.57;;;2.00;99.90;;;;;;5106427;28;20505;-62
2023/01/30 01:30:07;;;;;;;22.85;12.30;;;2.00;99.90;;;;;;5108820;28;20103;-61
2023/01/30 01:32:32;;;;;;;20.50;11.65;;;2.00;99.90;;;;;;5093075;28;20039;-62
2023/01/30 01:34:58;;;;;;;19.60;11.07;;;2.00;99.90;;;;;;5109051;28;20090;-62
2023/01/30 01:37:23;;;;;;;21.25;12.35;;;2.00;99.90;;;;;;5091611;28;20024;-61
2023/01/30 01:42:36;;;;;;;20.73;11.55;;;2.00;99.90;;;;;;5078861;28;20568;-62
2023/01/30 01:45:16;;;;;;;22.83;12.57;;;2.00;99.90;;;;;;5108729;28;20027;-61
2023/01/30 01:48:10;;;;;;;20.25;11.55;;;2.00;99.90;;;;;;5081074;28;20024;-61
2023/01/30 01:50:45;;;;;;;21.00;12.43;;;2.00;99.90;;;;;;5068349;28;20051;-62
2023/01/30 01:53:14;;;;;;;22.40;11.93;;;2.00;99.90;;;;;;5089028;28;20036;-61
2023/01/30 01:55:42;;;;;;;21.15;12.40;;;1.90;99.90;;;;;;5088660;28;20056;-62
2023/01/30 01:58:12;;;;;;;23.27;12.55;;;2.00;99.90;;;;;;5106403;28;20035;-61
2023/01/30 02:00:38;;;;;;;24.08;13.30;;;2.00;99.90;;;;;;5068313;28;20473;-62
2023/01/30 02:03:09;;;;;;;21.73;11.48;;;2.00;99.90;;;;;;5105307;28;20027;-61
2023/01/30 02:05:41;;;;;;;27.70;13.32;;;2.00;99.90;;;;;;5085016;28;20088;-62
2023/01/30 02:08:23;;;;;;;23.02;13.57;;;2.00;99.90;;;;;;5087636;28;20032;-62
2023/01/30 02:11:13;;;;;;;25.15;13.25;;;2.00;99.90;;;;;;5068097;28;20024;-62
2023/01/30 02:13:39;;;;;;;20.40;11.57;;;2.00;99.90;;;;;;5092963;28;20134;-62
2023/01/30 02:16:07;;;;;;;22.50;12.27;;;2.00;99.90;;;;;;5111632;28;20032;-62
2023/01/30 02:18:36;;;;;;;24.58;13.70;;;1.90;99.90;;;;;;5090100;28;20031;-62
2023/01/30 02:21:12;;;;;;;24.08;13.57;;;2.00;99.90;;;;;;5111864;28;20028;-61
2023/01/30 02:24:12;;;;;;;21.10;12.40;;;1.90;99.90;;;;;;5084893;28;20604;-62
2023/01/30 02:26:55;;;;;;;24.98;13.35;;;1.90;99.90;;;;;;5071752;28;20024;-62
2023/01/30 02:29:40;;;;;;;25.77;13.70;;;1.90;99.90;;;;;;5071450;28;20481;-62
2023/01/30 02:32:34;;;;;;;24.85;13.13;;;1.90;99.90;;;;;;5095942;28;20419;-61
2023/01/30 02:35:17;;;;;;;27.33;13.77;;;1.90;99.90;;;;;;5111895;28;20069;-62
2023/01/30 02:38:11;;;;;;;23.60;13.18;;;1.90;99.90;;;;;;5084152;28;20039;-62
2023/01/30 02:41:00;;;;;;;25.63;13.73;;;1.90;99.90;;;;;;5071218;28;20047;-62
2023/01/30 02:43:39;;;;;;;24.38;12.77;;;1.80;99.90;;;;;;5096520;28;20028;-61
2023/01/30 02:46:13;;;;;;;26.40;14.85;;;1.80;99.90;;;;;;5071118;28;20504;-61
2023/01/30 02:48:50;;;;;;;28.08;14.63;;;1.80;99.90;;;;;;5084632;28;20085;-62
2023/01/30 02:51:22;;;;;;;28.45;15.07;;;1.80;99.90;;;;;;5071097;28;20063;-61
2023/01/30 02:53:49;;;;;;;25.25;13.65;;;1.90;99.90;;;;;;5092769;28;20024;-61
2023/01/30 02:56:15;;;;;;;25.65;14.05;;;1.90;99.90;;;;;;5110998;28;20277;-61
2023/01/30 02:58:47;;;;;;;24.83;14.55;;;1.90;99.90;;;;;;5090090;28;20331;-62
2023/01/30 03:01:31;;;;;;;22.55;12.05;;;1.90;99.90;;;;;;5070992;28;20051;-61
2023/01/30 03:04:44;;;;;;;24.75;13.55;;;1.90;99.90;;;;;;5086991;28;20027;-62
2023/01/30 03:07:42;;;;;;;23.80;13.23;;;1.90;99.90;;;;;;5070649;28;20040;-54
2023/01/30 03:10:23;;;;;;;26.90;14.00;;;2.00;99.90;;;;;;5111616;28;20399;-53
2023/01/30 03:12:57;;;;;;;25.83;13.25;;;1.90;99.90;;;;;;5085359;28;20069;-57
2023/01/30 03:15:35;;;;;;;30.48;14.50;;;1.90;99.90;;;;;;5087625;28;20537;-68
2023/01/30 03:18:02;;;;;;;29.33;14.85;;;1.90;99.90;;;;;;5069778;28;20036;-67
2023/01/30 03:20:28;;;;;;;25.67;13.40;;;1.80;99.90;;;;;;5092250;28;20059;-67
2023/01/30 03:22:54;;;;;;;24.23;13.65;;;1.80;99.90;;;;;;5109181;28;20063;-67
2023/01/30 03:25:22;;;;;;;23.80;12.88;;;1.80;99.90;;;;;;5087878;28;20564;-68
2023/01/30 03:27:50;;;;;;;29.05;14.20;;;1.80;99.90;;;;;;5110511;28;20036;-68
2023/01/30 03:30:16;;;;;;;23.48;13.23;;;1.80;99.90;;;;;;5088829;28;20584;-68
2023/01/30 03:32:41;;;;;;;23.33;12.88;;;1.80;99.90;;;;;;5109988;28;20123;-68
2023/01/30 03:35:08;;;;;;;25.27;13.32;;;1.90;99.90;;;;;;5089104;28;20016;-67
2023/01/30 03:37:33;;;;;;;25.70;13.48;;;1.90;99.90;;;;;;5109874;28;20077;-67
2023/01/30 03:43:21;;;;;;;24.05;12.80;;;1.90;99.90;;;;;;5070581;28;20388;-67
2023/01/30 03:45:46;;;;;;;23.65;12.35;;;1.90;99.90;;;;;;5088815;28;20040;-67
2023/01/30 03:48:12;;;;;;;24.65;13.07;;;1.90;99.90;;;;;;5109859;28;20615;-67
2023/01/30 03:50:37;;;;;;;26.65;14.38;;;1.90;99.90;;;;;;5088755;28;20024;-67
2023/01/30 03:53:03;;;;;;;25.48;14.23;;;1.90;99.90;;;;;;5109606;28;20035;-67
2023/01/30 03:55:28;;;;;;;26.70;14.65;;;1.90;99.90;;;;;;5088705;28;20061;-67
2023/01/30 03:57:55;;;;;;;24.10;12.40;;;1.90;99.90;;;;;;5109372;28;20039;-68
2023/01/30 04:00:21;;;;;;;27.88;14.35;;;1.90;99.90;;;;;;5088357;28;20554;-67
2023/01/30 04:02:46;;;;;;;26.55;13.73;;;1.90;99.90;;;;;;5108142;28;20126;-67
2023/01/30 04:05:12;;;;;;;25.58;13.75;;;1.90;99.90;;;;;;5088276;28;20096;-67
2023/01/30 04:07:37;;;;;;;26.42;13.32;;;2.00;99.90;;;;;;5109945;28;20471;-67
2023/01/30 04:10:03;;;;;;;25.95;14.23;;;1.90;99.90;;;;;;5088358;28;20115;-66
2023/01/30 04:12:28;;;;;;;23.55;13.93;;;1.90;99.90;;;;;;5109307;28;20035;-67
2023/01/30 04:14:54;;;;;;;26.10;12.85;;;1.90;99.90;;;;;;5107897;28;20028;-66
2023/01/30 04:17:19;;;;;;;27.00;13.63;;;2.00;99.90;;;;;;5090251;28;20032;-67
2023/01/30 04:19:45;;;;;;;28.15;15.20;;;2.00;99.90;;;;;;5088894;28;20028;-67
2023/01/30 04:22:10;;;;;;;29.35;14.50;;;1.90;99.90;;;;;;5109191;28;20068;-67
2023/01/30 04:24:36;;;;;;;28.17;14.52;;;1.90;99.90;;;;;;5088426;28;20032;-67
2023/01/30 04:27:01;;;;;;;23.65;13.45;;;2.00;99.90;;;;;;5109251;28;20449;-66
2023/01/30 04:29:26;;;;;;;27.08;13.52;;;1.90;99.90;;;;;;5088241;28;20066;-67
2023/01/30 04:31:52;;;;;;;25.50;14.63;;;2.00;99.90;;;;;;5108929;28;20051;-67
2023/01/30 04:34:17;;;;;;;22.75;13.13;;;2.00;99.90;;;;;;5086716;28;20088;-67
2023/01/30 04:36:43;;;;;;;23.98;13.50;;;2.00;99.90;;;;;;5108852;28;20542;-68
2023/01/30 04:39:08;;;;;;;20.83;11.95;;;2.00;99.90;;;;;;5088092;28;20055;-67
2023/01/30 04:41:34;;;;;;;23.75;13.77;;;2.10;99.90;;;;;;5108901;28;20055;-67
2023/01/30 04:43:59;;;;;;;24.67;13.32;;;2.10;99.90;;;;;;5088080;28;20040;-67
2023/01/30 04:46:25;;;;;;;23.77;13.40;;;2.00;99.90;;;;;;5108855;28;20027;-67
2023/01/30 04:48:50;;;;;;;25.58;13.50;;;2.00;99.90;;;;;;5098859;28;20039;-67
2023/01/30 04:51:16;;;;;;;26.42;13.63;;;2.10;99.90;;;;;;5089694;28;20028;-67
2023/01/30 04:53:41;;;;;;;24.05;13.50;;;2.10;99.90;;;;;;5106870;28;20035;-67
2023/01/30 04:56:07;;;;;;;25.25;14.13;;;2.10;99.90;;;;;;5089657;28;20392;-67
2023/01/30 04:58:33;;;;;;;25.85;12.32;;;2.10;99.90;;;;;;5106686;28;20095;-67
2023/01/30 05:01:14;;;;;;;24.98;12.68;;;2.10;99.90;;;;;;5089646;28;20051;-67
2023/01/30 05:03:40;;;;;;;19.92;12.05;;;2.20;99.90;;;;;;5106896;28;20024;-67
2023/01/30 05:06:06;;;;;;;24.55;12.48;;;2.10;99.90;;;;;;5089069;28;20044;-67
2023/01/30 05:08:31;;;;;;;23.23;12.30;;;2.20;99.90;;;;;;5106621;28;20028;-66
2023/01/30 05:10:57;;;;;;;26.00;12.63;;;2.20;99.90;;;;;;5089611;28;20028;-67
2023/01/30 05:13:22;;;;;;;22.05;12.32;;;2.20;99.90;;;;;;5106591;28;20517;-67
2023/01/30 05:15:47;;;;;;;21.95;11.68;;;2.20;99.90;;;;;;5109435;28;20023;-67
2023/01/30 05:18:13;;;;;;;25.63;14.20;;;2.20;99.90;;;;;;5093160;28;20035;-67
2023/01/30 05:20:38;;;;;;;23.02;12.13;;;2.20;99.90;;;;;;5109366;28;20036;-67
2023/01/30 05:23:04;;;;;;;23.88;12.38;;;2.20;99.90;;;;;;5091885;28;20028;-67
2023/01/30 05:25:29;;;;;;;21.70;11.85;;;2.20;99.90;;;;;;5109191;28;20387;-67
2023/01/30 05:27:56;;;;;;;23.63;12.27;;;2.20;99.90;;;;;;5090724;28;20035;-67
2023/01/30 05:30:21;;;;;;;25.30;12.15;;;2.10;99.90;;;;;;5107954;28;20031;-58
2023/01/30 05:32:46;;;;;;;24.42;12.23;;;2.10;99.90;;;;;;5089273;28;20048;-62
2023/01/30 05:35:12;;;;;;;22.63;12.15;;;2.10;99.90;;;;;;5109189;28;20103;-55
2023/01/30 05:37:38;;;;;;;23.58;12.38;;;2.10;99.90;;;;;;5087835;28;20058;-57
2023/01/30 05:40:05;;;;;;;22.08;11.35;;;2.10;99.90;;;;;;5109151;28;20059;-53
2023/01/30 05:42:30;;;;;;;21.33;11.85;;;2.10;99.90;;;;;;5089155;28;20028;-55
2023/01/30 05:44:56;;;;;;;24.38;13.27;;;2.10;99.90;;;;;;5106971;28;20475;-56
2023/01/30 05:47:21;;;;;;;25.77;12.43;;;2.10;99.90;;;;;;5091850;28;20101;-55
2023/01/30 05:49:48;;;;;;;26.10;14.00;;;2.10;99.90;;;;;;5091370;28;20401;-56
2023/01/30 05:52:13;;;;;;;20.33;11.40;;;2.10;99.90;;;;;;5112090;28;20039;-56
2023/01/30 05:54:38;;;;;;;23.65;11.80;;;2.10;99.90;;;;;;5091217;28;20083;-52
2023/01/30 05:57:04;;;;;;;24.38;13.50;;;2.10;99.90;;;;;;5111853;28;20024;-56
2023/01/30 05:59:29;;;;;;;23.35;12.05;;;2.10;99.90;;;;;;5091177;28;20036;-54
2023/01/30 06:01:55;;;;;;;20.83;12.10;;;2.10;99.90;;;;;;5112040;28;20039;-56
2023/01/30 06:04:20;;;;;;;22.25;11.80;;;2.10;99.90;;;;;;5090733;28;20032;-59
2023/01/30 06:06:49;;;;;;;21.08;11.98;;;2.10;99.90;;;;;;5105521;28;20054;-56
2023/01/30 06:09:15;;;;;;;22.38;12.18;;;2.20;99.90;;;;;;5090478;28;20032;-53
2023/01/30 06:11:40;;;;;;;22.13;12.60;;;2.20;99.90;;;;;;5111863;28;20038;-52
2023/01/30 06:14:06;;;;;;;26.42;12.88;;;2.20;99.90;;;;;;5087394;28;20111;-54
2023/01/30 06:16:31;;;;;;;21.38;11.30;;;2.20;99.90;;;;;;5091728;28;20074;-57
2023/01/30 06:18:57;;;;;;;20.10;10.60;;;2.20;99.90;;;;;;5109730;28;20119;-52
2023/01/30 06:21:22;;;;;;;19.50;10.52;;;2.20;99.90;;;;;;5112464;28;20028;-53
2023/01/30 06:23:48;;;;;;;19.25;10.18;;;2.20;99.90;;;;;;5095852;28;20023;-57
2023/01/30 06:26:13;;;;;;;24.70;11.55;;;2.20;99.90;;;;;;5112351;28;20068;-51
2023/01/30 06:28:39;;;;;;;25.05;12.18;;;2.20;99.90;;;;;;5094265;28;20054;-53
2023/01/30 06:31:06;;;;;;;19.05;10.90;;;2.20;99.90;;;;;;5107084;28;20102;-54
2023/01/30 06:33:31;;;;;;;21.65;12.43;;;2.30;99.90;;;;;;5092991;28;20020;-55
2023/01/30 06:35:57;;;;;;;24.02;12.77;;;2.20;99.90;;;;;;5112039;28;20084;-53
2023/01/30 06:38:22;;;;;;;22.92;12.35;;;2.20;99.90;;;;;;5091971;28;20035;-56
2023/01/30 06:40:49;;;;;;;20.58;11.73;;;2.20;99.90;;;;;;5111896;28;20031;-53
2023/01/30 06:43:15;;;;;;;22.60;11.45;;;2.30;99.90;;;;;;5090721;28;20090;-52
2023/01/30 06:45:40;;;;;;;19.15;11.25;;;2.30;99.90;;;;;;5112159;28;20616;-53
2023/01/30 06:48:07;;;;;;;22.75;12.30;;;2.30;99.90;;;;;;5091748;28;20032;-55
2023/01/30 06:50:32;;;;;;;23.50;12.57;;;2.30;99.90;;;;;;5109466;28;20048;-55
2023/01/30 06:53:02;;;;;;;21.48;11.80;;;2.30;99.90;;;;;;5091904;28;20507;-54
2023/01/30 06:55:27;;;;;;;20.70;12.02;;;2.40;99.90;;;;;;5090239;28;20440;-54
2023/01/30 06:58:13;;;;;;;19.92;10.70;;;2.40;99.90;;;;;;5109464;28;20114;-51
2023/01/30 07:00:41;;;;;;;22.35;11.25;;;2.40;99.90;;;;;;5111835;28;20031;-57
2023/01/30 07:03:15;;;;;;;21.30;11.50;;;2.40;99.90;;;;;;5093822;28;20028;-55
2023/01/30 07:05:42;;;;;;;22.35;11.50;;;2.40;99.90;;;;;;5098545;28;20495;-50
2023/01/30 07:08:08;;;;;;;23.08;11.88;;;2.40;99.90;;;;;;5092148;28;20027;-57
2023/01/30 07:10:34;;;;;;;22.65;11.95;;;2.40;99.90;;;;;;5111511;28;20034;-56
2023/01/30 07:13:00;;;;;;;23.10;12.00;;;2.50;99.90;;;;;;5091066;28;20043;-56
2023/01/30 07:15:26;;;;;;;22.73;11.90;;;2.50;99.90;;;;;;5105279;28;20028;-55
2023/01/30 07:17:52;;;;;;;22.08;11.60;;;2.50;99.90;;;;;;5089289;28;20030;-53
2023/01/30 07:20:17;;;;;;;22.02;12.45;;;2.60;99.90;;;;;;5111284;28;20140;-54
2023/01/30 07:22:49;;;;;;;19.95;10.15;;;2.60;99.90;;;;;;5091486;28;20066;-53
2023/01/30 07:25:15;;;;;;;25.33;12.15;;;2.60;99.90;;;;;;5070742;28;20029;-55
2023/01/30 07:27:40;;;;;;;25.05;11.13;;;2.70;99.90;;;;;;5110084;28;20024;-54
2023/01/30 07:30:06;;;;;;;20.20;10.88;;;2.70;99.90;;;;;;5089537;28;20069;-54
2023/01/30 07:32:32;;;;;;;25.27;12.10;;;2.80;99.90;;;;;;5110316;28;20044;-53
2023/01/30 07:34:57;;;;;;;20.52;10.85;;;2.80;99.90;;;;;;5089492;28;20043;-49
2023/01/30 07:37:23;;;;;;;20.92;10.00;;;2.80;99.90;;;;;;5110029;28;20479;-55
2023/01/30 07:39:48;;;;;;;18.02;9.85;;;2.90;99.90;;;;;;5089419;28;20137;-54
2023/01/30 07:42:14;;;;;;;16.77;9.90;;;2.90;99.90;;;;;;5110073;28;20048;-54
2023/01/30 07:44:39;;;;;;;17.48;10.32;;;3.00;99.90;;;;;;5089343;28;20028;-54
2023/01/30 07:47:04;;;;;;;22.08;11.13;;;3.00;99.90;;;;;;5110030;28;20063;-55
2023/01/30 07:49:30;;;;;;;17.60;9.85;;;3.10;99.90;;;;;;5089261;28;20036;-53
2023/01/30 07:51:55;;;;;;;20.15;9.93;;;3.10;99.90;;;;;;5092215;28;20036;-51
2023/01/30 07:54:21;;;;;;;18.95;9.63;;;3.10;99.90;;;;;;5110005;28;20032;-52
2023/01/30 07:56:46;;;;;;;19.88;9.98;;;3.20;99.90;;;;;;5089287;28;20368;-55
2023/01/30 07:59:12;;;;;;;19.30;10.30;;;3.20;99.90;;;;;;5109821;28;20634;-54
2023/01/30 08:01:37;;;;;;;18.27;10.00;;;3.20;99.90;;;;;;5089193;28;20032;-54
2023/01/30 08:04:03;;;;;;;19.75;9.90;;;3.20;99.90;;;;;;5109752;28;20032;-56
2023/01/30 08:06:29;;;;;;;15.85;8.93;;;3.30;99.90;;;;;;5085042;28;20035;-54
2023/01/30 08:08:55;;;;;;;22.73;10.35;;;3.30;99.90;;;;;;5089675;28;20020;-56
2023/01/30 08:11:20;;;;;;;17.20;10.13;;;3.40;99.90;;;;;;5101432;28;20042;-57
2023/01/30 08:13:46;;;;;;;17.88;8.88;;;3.40;99.90;;;;;;5098808;28;20038;-54
2023/01/30 08:16:11;;;;;;;17.85;9.48;;;3.40;99.90;;;;;;5090548;28;20031;-54
2023/01/30 08:18:37;;;;;;;16.85;9.38;;;3.50;99.90;;;;;;5109935;28;20040;-53
2023/01/30 08:21:05;;;;;;;15.77;8.75;;;3.50;99.90;;;;;;5088569;28;20046;-52
2023/01/30 08:23:32;;;;;;;14.48;8.77;;;3.50;99.90;;;;;;5109959;28;20027;-56
2023/01/30 08:25:59;;;;;;;16.85;8.82;;;3.60;99.90;;;;;;5088551;28;20023;-54
2023/01/30 08:28:25;;;;;;;12.60;7.65;;;3.70;99.90;;;;;;5109729;28;20055;-54
2023/01/30 08:30:53;;;;;;;17.48;8.98;;;3.70;99.90;;;;;;5091333;28;20086;-53
2023/01/30 08:33:19;;;;;;;17.65;9.15;;;3.80;99.90;;;;;;5089108;28;20060;-53
2023/01/30 08:35:44;;;;;;;15.77;8.20;;;3.90;99.90;;;;;;5109101;28;20801;-56
2023/01/30 08:38:10;;;;;;;13.65;8.05;;;3.90;99.90;;;;;;5087837;28;20028;-51
2023/01/30 08:40:36;;;;;;;14.35;8.27;;;4.00;99.90;;;;;;5108601;28;20506;-53
2023/01/30 08:43:02;;;;;;;14.55;8.05;;;4.00;99.90;;;;;;5087452;28;20578;-54
2023/01/30 08:45:27;;;;;;;14.25;7.03;;;4.00;99.90;;;;;;5108481;28;20063;-54
2023/01/30 08:48:00;;;;;;;14.23;7.38;;;4.10;99.90;;;;;;5087458;28;20488;-56
2023/01/30 08:50:26;;;;;;;9.88;5.97;;;4.10;99.90;;;;;;5068595;28;20032;-53
2023/01/30 08:52:51;;;;;;;10.02;6.40;;;4.20;99.90;;;;;;5094840;28;20024;-53
2023/01/30 08:55:17;;;;;;;10.70;6.25;;;4.20;99.90;;;;;;5108178;28;20023;-55
2023/01/30 08:57:43;;;;;;;11.77;6.80;;;4.20;99.90;;;;;;5087023;28;20507;-55
2023/01/30 09:00:09;;;;;;;11.07;6.85;;;4.30;99.90;;;;;;5108213;28;20543;-56
2023/01/30 09:02:34;;;;;;;10.88;6.43;;;4.30;99.90;;;;;;5087180;28;20103;-55
2023/01/30 09:05:00;;;;;;;11.60;5.50;;;4.40;99.90;;;;;;5098446;28;20162;-54
2023/01/30 09:07:27;;;;;;;9.85;6.03;;;4.50;99.90;;;;;;5086542;28;20051;-53
2023/01/30 09:09:53;;;;;;;9.88;6.32;;;4.60;99.90;;;;;;5088427;28;20034;-55
2023/01/30 09:12:19;;;;;;;9.40;5.15;;;4.60;99.90;;;;;;5099822;28;20107;-54
2023/01/30 09:14:44;;;;;;;10.02;5.35;;;4.70;99.90;;;;;;5088504;28;20153;-55
2023/01/30 09:17:10;;;;;;;11.57;5.00;;;4.70;99.90;;;;;;5100768;28;20100;-55
2023/01/30 09:19:36;;;;;;;9.63;5.22;;;4.70;99.90;;;;;;5088409;28;20434;-55
2023/01/30 09:22:01;;;;;;;6.85;4.57;;;4.80;99.90;;;;;;5108067;28;20032;-54
2023/01/30 09:24:27;;;;;;;6.72;4.20;;;4.80;99.90;;;;;;5113150;28;20035;-54
2023/01/30 09:26:56;;;;;;;5.88;3.92;;;4.80;99.90;;;;;;5091152;28;20405;-54
2023/01/30 09:29:22;;;;;;;9.40;4.22;;;4.90;99.90;;;;;;5092353;28;20041;-54
2023/01/30 09:31:48;;;;;;;6.25;3.38;;;4.90;99.90;;;;;;5098957;28;20059;-55
2023/01/30 09:34:14;;;;;;;6.35;3.85;;;4.90;99.90;;;;;;5092387;28;20094;-55
2023/01/30 09:36:39;;;;;;;6.13;3.70;;;5.00;99.90;;;;;;5109921;28;20419;-53
2023/01/30 09:39:05;;;;;;;5.00;2.97;;;5.00;99.90;;;;;;5112770;28;20088;-55
2023/01/30 09:41:59;;;;;;;4.45;2.70;;;5.10;99.90;;;;;;5092619;28;20488;-55
2023/01/30 09:45:02;;;;;;;6.13;3.10;;;5.10;99.90;;;;;;5072056;28;20028;-54
2023/01/30 09:47:51;;;;;;;4.75;2.80;;;5.20;99.90;;;;;;5101302;28;20036;-51
2023/01/30 09:50:16;;;;;;;6.35;2.38;;;5.30;99.90;;;;;;5091970;28;20020;-56
2023/01/30 09:52:59;;;;;;;4.97;3.05;;;5.40;99.90;;;;;;5109498;28;20092;-55
2023/01/30 09:55:28;;;;;;;7.97;2.88;;;5.50;99.90;;;;;;5071834;28;20035;-57
2023/01/30 09:57:55;;;;;;;7.45;3.13;;;5.50;99.90;;;;;;5098813;28;20036;-54
2023/01/30 10:00:35;;;;;;;4.53;2.20;;;5.50;99.90;;;;;;5111812;28;20056;-56
2023/01/30 10:03:17;;;;;;;6.78;2.75;;;5.60;99.90;;;;;;5081990;28;20020;-56
2023/01/30 10:05:46;;;;;;;5.45;2.70;;;5.60;99.90;;;;;;5090733;28;20039;-55
2023/01/30 10:08:57;;;;;;;8.13;2.88;;;5.60;99.90;;;;;;5090016;28;20057;-54
2023/01/30 10:11:23;;;;;;;4.50;1.92;;;5.80;99.90;;;;;;5009081;28;20038;-56
2023/01/30 10:14:20;;;;;;;4.95;2.42;;;5.80;99.90;;;;;;5062257;28;20048;-54
2023/01/30 10:17:20;;;;;;;5.32;1.90;;;5.90;99.90;;;;;;5072604;28;20103;-53
2023/01/30 10:20:20;;;;;;;5.70;2.67;;;5.90;99.90;;;;;;5111964;28;20544;-56
2023/01/30 10:23:13;;;;;;;3.78;1.98;;;5.90;99.90;;;;;;5079362;28;20028;-56
2023/01/30 10:25:46;;;;;;;5.15;2.53;;;5.90;99.90;;;;;;5071073;28;20021;-57
2023/01/30 10:28:24;;;;;;;6.20;1.80;;;5.90;99.90;;;;;;5089403;28;20035;-55
2023/01/30 10:30:55;;;;;;;6.00;2.35;;;6.00;99.90;;;;;;5076381;28;20111;-54
2023/01/30 10:33:26;;;;;;;7.75;1.95;;;6.10;99.90;;;;;;5094390;28;20031;-53
2023/01/30 10:36:13;;;;;;;6.07;1.75;;;6.20;99.90;;;;;;5070990;28;20519;-54
2023/01/30 10:38:43;;;;;;;;;;;6.30;99.90;;;;;;5091599;28;20043;-55
2023/01/30 10:41:35;;;;;;;6.25;2.83;;;6.30;99.90;;;;;;5111228;28;19962;-53
2023/01/30 10:44:03;;;;;;;6.22;2.70;;;6.40;99.90;;;;;;5070916;28;20390;-57
2023/01/30 10:46:37;;;;;;;8.93;2.13;;;6.50;99.90;;;;;;5110618;28;20019;-54
2023/01/30 10:49:14;;;;;;;7.35;1.88;;;6.60;99.90;;;;;;5070664;28;20029;-56
2023/01/30 10:51:59;;;;;;;5.50;2.15;;;6.70;99.90;;;;;;5089015;28;20429;-56
2023/01/30 10:54:32;;;;;;;11.13;1.92;;;6.90;99.90;;;;;;5090781;28;20515;-51
2023/01/30 10:57:23;;;;;;;6.57;1.40;;;7.10;99.90;;;;;;5104350;28;20024;-54
2023/01/30 11:00:04;;;;;;;5.32;1.45;;;7.20;99.90;;;;;;5090904;28;20024;-55
2023/01/30 11:02:59;;;;;;;11.02;1.70;;;7.20;99.90;;;;;;5099549;28;20033;-56
2023/01/30 11:05:29;;;;;;;13.88;2.08;;;7.10;99.90;;;;;;5058069;28;20507;-55
2023/01/30 11:07:54;;;;;;;12.27;3.08;;;7.00;99.90;;;;;;5079671;28;20028;-56
2023/01/30 11:10:26;;;;;;;9.45;1.73;;;7.00;99.90;;;;;;5109990;28;20045;-54
2023/01/30 11:12:59;;;;;;;12.15;2.00;;;7.10;99.90;;;;;;5077590;28;20028;-56
2023/01/30 11:15:42;;;;;;;13.85;2.40;;;7.10;99.90;;;;;;5070312;28;20037;-60
2023/01/30 11:18:08;;;;;;;8.60;1.77;;;7.10;99.60;;;;;;5081373;28;20055;-60
2023/01/30 11:20:40;;;;;;;10.52;3.22;;;7.20;98.30;;;;;;5109937;28;20506;-60
2023/01/30 11:23:33;;;;;;;10.20;2.53;;;7.20;97.90;;;;;;5081286;28;20020;-60
2023/01/30 11:26:01;;;;;;;8.45;2.35;;;7.20;94.60;;;;;;5063788;28;20040;-60
2023/01/30 11:28:32;;;;;;;6.95;2.10;;;7.30;95.40;;;;;;5091988;28;20480;-60
2023/01/30 11:30:59;;;;;;;14.77;2.65;;;7.40;95.20;;;;;;5077431;28;20047;-61
2023/01/30 11:33:37;;;;;;;8.13;2.45;;;7.30;92.60;;;;;;5092957;28;20035;-60
2023/01/30 11:36:04;;;;;;;9.45;2.30;;;7.30;93.20;;;;;;5109870;28;20058;-55
2023/01/30 11:38:37;;;;;;;13.18;3.08;;;7.30;93.00;;;;;;5088257;28;20114;-57
2023/01/30 11:41:09;;;;;;;11.05;2.05;;;7.40;93.20;;;;;;5068233;28;20425;-59
2023/01/30 11:43:38;;;;;;;12.88;2.53;;;7.50;93.00;;;;;;5089514;28;20036;-58
2023/01/30 11:46:06;;;;;;;9.82;2.05;;;7.60;93.30;;;;;;5109688;28;20092;-59
2023/01/30 11:48:33;;;;;;;13.20;2.35;;;7.60;90.70;;;;;;5088112;28;20032;-59
2023/01/30 11:51:05;;;;;;;11.95;1.73;;;7.60;91.40;;;;;;5109606;28;20089;-58
2023/01/30 11:53:37;;;;;;;10.57;2.15;;;7.50;91.90;;;;;;5087918;28;20055;-59
2023/01/30 11:56:22;;;;;;;12.38;2.33;;;7.40;91.30;;;;;;5109655;28;20032;-58
2023/01/30 11:58:57;;;;;;;13.43;2.00;;;7.30;90.50;;;;;;5086279;28;20186;-59
2023/01/30 12:01:27;;;;;;;7.53;2.25;;;7.20;90.80;;;;;;5069384;28;20430;-57
2023/01/30 12:03:54;;;;;;;10.15;2.10;;;7.20;92.50;;;;;;5087491;28;20519;-58
2023/01/30 12:06:35;;;;;;;9.13;1.75;;;7.30;92.80;;;;;;5101842;28;20032;-58
2023/01/30 12:09:01;;;;;;;13.43;2.33;;;7.40;92.60;;;;;;5109838;28;20023;-57
2023/01/30 12:11:30;;;;;;;8.50;2.30;;;7.50;91.50;;;;;;5089779;28;20077;-59
2023/01/30 12:14:13;;;;;;;8.60;1.98;;;7.50;90.60;;;;;;5087546;28;20152;-59
2023/01/30 12:16:56;;;;;;;9.00;1.85;;;7.70;93.00;;;;;;5067843;28;20029;-59
2023/01/30 12:20:01;;;;;;;7.80;2.20;;;7.90;92.00;;;;;;5089256;28;20032;-57
2023/01/30 12:22:48;;;;;;;7.53;1.70;;;8.00;85.90;;;;;;4995392;28;20591;-59
2023/01/30 12:25:40;;;;;;;8.98;2.00;;;7.90;86.00;;;;;;5009798;28;20036;-57
2023/01/30 12:28:31;;;;;;;9.38;2.03;;;7.80;86.80;;;;;;5063680;28;20046;-59
2023/01/30 12:31:15;;;;;;;10.43;1.70;;;7.80;86.00;;;;;;5076047;28;20399;-58
2023/01/30 12:33:40;;;;;;;5.32;2.25;;;7.80;83.80;;;;;;5089588;28;20028;-58
2023/01/30 12:36:49;;;;;;;7.15;1.52;;;7.70;85.40;;;;;;5108263;28;20035;-59
2023/01/30 12:39:50;;;;;;;10.18;2.08;;;7.60;85.60;;;;;;5068585;28;20070;-58
2023/01/30 12:42:52;;;;;;;3.95;1.42;;;7.50;84.70;;;;;;5072667;28;20702;-59
2023/01/30 12:45:21;;;;;;;8.45;1.92;;;7.50;86.10;;;;;;5108171;28;20036;-59
2023/01/30 12:47:50;;;;;;;6.07;1.40;;;7.50;86.80;;;;;;5086906;28;20024;-58
2023/01/30 12:50:19;;;;;;;8.10;1.63;;;7.60;85.60;;;;;;5108193;28;20028;-59
2023/01/30 12:53:12;;;;;;;10.23;2.30;;;7.70;86.80;;;;;;5086775;28;20387;-58
2023/01/30 12:55:43;;;;;;;9.63;1.83;;;7.70;83.20;;;;;;5068612;28;20642;-59
2023/01/30 12:58:51;;;;;;;5.88;1.80;;;7.80;84.30;;;;;;5093223;28;20067;-62
2023/01/30 13:01:47;;;;;;;7.43;1.90;;;8.00;81.90;;;;;;5055304;28;20071;-58
2023/01/30 13:04:31;;;;;;;10.73;3.07;;;8.00;78.80;;;;;;5068260;28;20036;-58
2023/01/30 13:07:11;;;;;;;11.73;2.53;;;8.00;77.60;;;;;;5063167;28;20269;-56
2023/01/30 13:09:58;;;;;;;9.23;2.58;;;8.00;80.20;;;;;;5088471;28;20026;-58
2023/01/30 13:12:55;;;;;;;12.98;2.42;;;8.00;78.50;;;;;;5080004;28;20045;-57
2023/01/30 13:15:40;;;;;;;8.95;1.80;;;7.90;79.20;;;;;;5068388;28;20396;-57